createdAt,value
2023-01-31T00:04:33.095Z,37.65
2023-01-31T00:14:34.927Z,37.63
2023-01-31T00:24:36.316Z,37.55
2023-01-31T00:34:38.216Z,37.52
2023-01-31T00:44:39.826Z,37.54
2023-01-31T00:54:42.764Z,37.65
2023-01-31T01:04:44.305Z,37.66
2023-01-31T01:14:45.892Z,37.85
2023-01-31T01:24:47.376Z,37.96
2023-01-31T01:34:48.749Z,38.23
2023-01-31T01:45:00.216Z,38.15
2023-01-31T01:55:06.941Z,38.26
2023-01-31T02:05:08.814Z,38.31
2023-01-31T02:15:10.428Z,38.37
2023-01-31T02:25:33.492Z,38.49
2023-01-31T02:35:58.412Z,38.53
2023-01-31T02:46:11.284Z,38.67
2023-01-31T02:56:27.184Z,38.73
2023-01-31T03:06:28.478Z,38.55
2023-01-31T03:17:15.303Z,38.37
2023-01-31T03:27:16.830Z,38.17
2023-01-31T03:37:32.505Z,37.96
2023-01-31T03:47:36.700Z,37.89
2023-01-31T03:57:40.122Z,37.91
2023-01-31T04:07:41.674Z,37.82
2023-01-31T04:17:43.047Z,37.65
2023-01-31T04:27:44.435Z,37.69
2023-01-31T04:37:45.850Z,37.60
2023-01-31T04:47:47.363Z,37.76
2023-01-31T04:57:48.740Z,37.85
2023-01-31T05:07:50.137Z,38.18
2023-01-31T05:18:02.950Z,38.03
2023-01-31T05:28:04.608Z,37.92
2023-01-31T05:38:06.903Z,37.94
2023-01-31T05:48:08.616Z,37.76
2023-01-31T05:58:10.224Z,37.72
2023-01-31T06:08:11.759Z,37.76
2023-01-31T06:18:13.255Z,37.85
2023-01-31T06:28:14.717Z,37.92
2023-01-31T06:38:16.364Z,37.96
2023-01-31T06:48:19.376Z,37.88
2023-01-31T06:58:21.021Z,37.94
2023-01-31T07:08:22.583Z,37.88
2023-01-31T07:18:24.015Z,37.86
2023-01-31T07:28:25.415Z,37.93
2023-01-31T07:38:26.784Z,37.93
2023-01-31T07:48:28.214Z,37.92
2023-01-31T07:58:29.712Z,37.92
2023-01-31T08:08:31.085Z,37.73
2023-01-31T08:18:32.904Z,37.88
2023-01-31T08:28:34.394Z,37.76
2023-01-31T08:38:35.822Z,37.63
2023-01-31T08:48:37.811Z,37.74
2023-01-31T08:58:40.145Z,37.75
2023-01-31T09:08:41.554Z,37.71
2023-01-31T09:18:43.167Z,37.61
2023-01-31T09:28:45.229Z,37.68
2023-01-31T09:38:46.601Z,37.66
2023-01-31T09:48:50.377Z,37.68
2023-01-31T09:59:13.104Z,37.67
2023-01-31T10:09:23.546Z,37.62
2023-01-31T10:19:28.307Z,37.70
2023-01-31T10:29:41.043Z,37.69
2023-01-31T10:39:44.781Z,37.56
2023-01-31T10:49:47.606Z,37.63
2023-01-31T10:59:49.039Z,37.64
2023-01-31T11:09:54.001Z,37.84
2023-01-31T11:19:55.714Z,37.74
2023-01-31T11:30:00.091Z,37.78
2023-01-31T11:40:19.679Z,37.64
2023-01-31T11:50:35.014Z,37.70
2023-01-31T12:00:36.434Z,37.66
2023-01-31T12:10:44.895Z,37.86
2023-01-31T12:20:50.721Z,37.73
2023-01-31T12:31:07.038Z,37.62
2023-01-31T12:41:32.557Z,37.62
2023-01-31T12:51:45.908Z,37.61
2023-01-31T13:01:49.188Z,37.71
2023-01-31T13:12:01.792Z,37.85
2023-01-31T13:22:08.795Z,37.81
2023-01-31T13:32:18.935Z,37.87
2023-01-31T13:42:21.475Z,37.84
2023-01-31T13:52:26.649Z,38.04
2023-01-31T14:02:28.070Z,38.12
2023-01-31T14:12:34.285Z,38.14
2023-01-31T14:22:36.983Z,38.16
2023-01-31T14:32:38.314Z,38.27
2023-01-31T14:42:43.015Z,38.30
2023-01-31T14:53:06.591Z,38.35
2023-01-31T15:03:13.383Z,38.49
2023-01-31T15:13:41.256Z,38.55
2023-01-31T15:23:42.688Z,38.62
2023-01-31T15:33:45.457Z,38.67
2023-01-31T15:43:47.166Z,38.61
2023-01-31T15:53:48.768Z,38.73
2023-01-31T16:03:57.565Z,38.67
2023-01-31T16:13:59.035Z,38.78
2023-01-31T16:24:02.878Z,38.85
2023-01-31T16:34:05.520Z,38.93
2023-01-31T16:44:11.957Z,38.90
2023-01-31T16:54:32.411Z,38.92
2023-01-31T17:04:33.826Z,38.87
2023-01-31T17:14:35.281Z,38.92
2023-01-31T17:24:36.779Z,38.87
2023-01-31T17:34:38.319Z,39.05
2023-01-31T17:44:39.718Z,39.08
2023-01-31T17:54:41.116Z,39.16
2023-01-31T18:04:42.697Z,39.16
2023-01-31T18:14:44.327Z,39.26
2023-01-31T18:24:45.801Z,39.27
2023-01-31T18:34:47.172Z,39.34
2023-01-31T18:44:48.543Z,39.34
2023-01-31T18:54:51.486Z,39.28
2023-01-31T19:04:52.953Z,39.37
2023-01-31T19:14:56.168Z,39.37
2023-01-31T19:24:58.122Z,39.27
2023-01-31T19:34:59.513Z,39.31
2023-01-31T19:45:00.889Z,39.16
2023-01-31T19:55:02.313Z,39.24
2023-01-31T20:05:03.759Z,39.27
2023-01-31T20:15:06.455Z,39.17
2023-01-31T20:25:08.004Z,38.76
2023-01-31T20:35:09.533Z,38.53
2023-01-31T20:45:11.250Z,38.27
2023-01-31T20:55:13.344Z,38.23
2023-01-31T21:05:19.542Z,38.05
2023-01-31T21:15:20.938Z,38.08
2023-01-31T21:25:23.043Z,38.02
2023-01-31T21:35:26.249Z,37.99
2023-01-31T21:45:40.019Z,38.04
2023-01-31T21:55:41.619Z,38.23
2023-01-31T22:05:42.978Z,38.33
2023-01-31T22:15:44.411Z,38.40
2023-01-31T22:25:45.833Z,38.51
2023-01-31T22:35:47.305Z,38.67
2023-01-31T22:45:49.578Z,38.67
2023-01-31T22:55:51.001Z,38.90
2023-01-31T23:05:52.376Z,39.01
2023-01-31T23:15:53.963Z,38.89
2023-01-31T23:25:55.470Z,39.18
2023-01-31T23:35:56.830Z,39.10
2023-01-31T23:45:58.263Z,39.12
2023-01-31T23:55:59.784Z,39.01
